Time;durP1;ratioP1;P1;durP2;ratioP2;P2;SDS_P1;SDS_P2;PMS_P1;PMS_P2;Temp;Humidity;BMP_temperature;BMP_pressure;BME280_temperature;BME280_humidity;BME280_pressure;Samples;Min_cycle;Max_cycle;Signal;HPM_P1;HPM_P2
2023/09/06 00:00:03;;;;;;;5.18;3.70;;;;;;;;;;5092305;28;20523;-66
2023/09/06 00:02:31;;;;;;;6.72;3.95;;;;;;;;;;5092502;28;20119;-66
2023/09/06 00:04:57;;;;;;;4.60;3.75;;;;;;;;;;5092006;28;20074;-66
2023/09/06 00:07:23;;;;;;;5.43;3.40;;;;;;;;;;5092207;28;20045;-66
2023/09/06 00:09:49;;;;;;;4.70;4.13;;;;;;;;;;5092067;28;20049;-66
2023/09/06 00:12:17;;;;;;;6.10;3.42;;;;;;;;;;5091986;28;20071;-66
2023/09/06 00:14:43;;;;;;;5.30;4.32;;;;;;;;;;5091933;28;20044;-66
2023/09/06 00:17:09;;;;;;;5.10;3.78;;;;;;;;;;5078222;28;20122;-66
2023/09/06 00:19:35;;;;;;;6.00;3.70;;;;;;;;;;5091563;28;20036;-66
2023/09/06 00:22:02;;;;;;;4.95;3.80;;;;;;;;;;5090615;28;20048;-66
2023/09/06 00:24:31;;;;;;;4.40;3.47;;;;;;;;;;5092193;28;20125;-66
2023/09/06 00:26:58;;;;;;;5.72;3.72;;;;;;;;;;5091261;28;20040;-66
2023/09/06 00:29:24;;;;;;;5.43;3.50;;;;;;;;;;5091832;28;20064;-66
2023/09/06 00:31:50;;;;;;;4.80;3.92;;;;;;;;;;5089974;28;20055;-66
2023/09/06 00:34:17;;;;;;;5.95;3.65;;;;;;;;;;5091568;28;20376;-66
2023/09/06 00:36:43;;;;;;;3.83;3.38;;;;;;;;;;5091559;28;20484;-66
2023/09/06 00:39:09;;;;;;;4.50;3.55;;;;;;;;;;5091816;28;20123;-66
2023/09/06 00:41:40;;;;;;;5.95;3.78;;;;;;;;;;5091176;28;20044;-66
2023/09/06 00:44:08;;;;;;;4.93;3.70;;;;;;;;;;5089657;28;20476;-66
2023/09/06 00:46:34;;;;;;;5.03;3.70;;;;;;;;;;5092004;28;20169;-66
2023/09/06 00:49:02;;;;;;;3.55;3.00;;;;;;;;;;5091071;28;20063;-66
2023/09/06 00:51:28;;;;;;;7.13;3.53;;;;;;;;;;5091701;28;20079;-66
2023/09/06 00:53:54;;;;;;;4.22;3.42;;;;;;;;;;5090063;28;20595;-66
2023/09/06 00:56:22;;;;;;;6.03;3.70;;;;;;;;;;5091240;28;20040;-66
2023/09/06 00:58:48;;;;;;;7.90;3.80;;;;;;;;;;5091420;28;20040;-66
2023/09/06 01:01:16;;;;;;;6.13;3.80;;;;;;;;;;5091708;28;20043;-66
2023/09/06 01:03:42;;;;;;;5.55;3.58;;;;;;;;;;5090936;28;20067;-66
2023/09/06 01:06:28;;;;;;;4.95;3.90;;;;;;;;;;5090157;28;20117;-66
2023/09/06 01:09:02;;;;;;;4.15;3.75;;;;;;;;;;5091623;28;20099;-66
2023/09/06 01:11:28;;;;;;;7.97;4.32;;;;;;;;;;5090779;28;20036;-66
2023/09/06 01:13:55;;;;;;;5.50;4.05;;;;;;;;;;5091538;28;20478;-66
2023/09/06 01:16:41;;;;;;;4.95;4.20;;;;;;;;;;5083333;28;20036;-66
2023/09/06 01:19:07;;;;;;;3.97;3.58;;;;;;;;;;5071401;28;20048;-66
2023/09/06 01:21:39;;;;;;;5.38;4.20;;;;;;;;;;5090639;28;20039;-66
2023/09/06 01:24:05;;;;;;;5.75;4.25;;;;;;;;;;5090822;28;20040;-66
2023/09/06 01:26:32;;;;;;;4.72;4.28;;;;;;;;;;5091552;28;20046;-66
2023/09/06 01:28:59;;;;;;;8.40;4.38;;;;;;;;;;5090788;28;20048;-66
2023/09/06 01:31:25;;;;;;;4.35;3.95;;;;;;;;;;5090881;28;20754;-66
2023/09/06 01:33:51;;;;;;;5.50;4.03;;;;;;;;;;5091070;28;20036;-66
2023/09/06 01:36:17;;;;;;;5.82;4.63;;;;;;;;;;5091192;28;20040;-66
2023/09/06 01:38:43;;;;;;;5.43;4.00;;;;;;;;;;5090982;28;20032;-66
2023/09/06 01:41:11;;;;;;;4.43;4.03;;;;;;;;;;5091239;28;20040;-66
2023/09/06 01:43:38;;;;;;;6.68;4.45;;;;;;;;;;5091089;28;20048;-66
2023/09/06 01:46:04;;;;;;;7.07;4.68;;;;;;;;;;5091068;28;20048;-66
2023/09/06 01:48:32;;;;;;;5.60;4.65;;;;;;;;;;5090628;28;20036;-66
2023/09/06 01:50:58;;;;;;;5.28;4.13;;;;;;;;;;5089236;28;20127;-66
2023/09/06 01:53:24;;;;;;;7.45;4.90;;;;;;;;;;5091173;28;20040;-66
2023/09/06 01:55:50;;;;;;;5.55;4.38;;;;;;;;;;5093052;28;20035;-66
2023/09/06 01:58:16;;;;;;;5.35;4.00;;;;;;;;;;5094572;28;20505;-66
2023/09/06 02:00:44;;;;;;;5.43;4.57;;;;;;;;;;5094499;28;20490;-66
2023/09/06 02:03:11;;;;;;;5.47;4.38;;;;;;;;;;5094183;28;20048;-66
2023/09/06 02:05:39;;;;;;;4.95;4.28;;;;;;;;;;5092913;28;20071;-66
2023/09/06 02:08:05;;;;;;;4.57;4.18;;;;;;;;;;5093209;28;20048;-66
2023/09/06 02:10:31;;;;;;;5.38;4.05;;;;;;;;;;5094173;28;20065;-66
2023/09/06 02:12:57;;;;;;;6.00;4.35;;;;;;;;;;5094392;28;20126;-66
2023/09/06 02:15:23;;;;;;;4.65;4.20;;;;;;;;;;5092963;28;20082;-66
2023/09/06 02:17:49;;;;;;;5.60;3.92;;;;;;;;;;5085238;28;20052;-66
2023/09/06 02:20:19;;;;;;;6.00;4.40;;;;;;;;;;5094517;28;20035;-66
2023/09/06 02:22:47;;;;;;;6.25;3.88;;;;;;;;;;5094152;28;20048;-66
2023/09/06 02:25:14;;;;;;;5.65;4.45;;;;;;;;;;5092705;28;20044;-66
2023/09/06 02:27:43;;;;;;;5.25;4.00;;;;;;;;;;5093908;28;20043;-66
2023/09/06 02:30:09;;;;;;;8.45;4.45;;;;;;;;;;5093662;28;20518;-66
2023/09/06 02:32:35;;;;;;;5.47;4.35;;;;;;;;;;5093819;28;20050;-66
2023/09/06 02:35:01;;;;;;;6.90;4.70;;;;;;;;;;5093794;28;20115;-66
2023/09/06 02:37:27;;;;;;;6.65;4.53;;;;;;;;;;5092520;28;20113;-66
2023/09/06 02:39:53;;;;;;;7.82;4.88;;;;;;;;;;5092137;28;20466;-66
2023/09/06 02:42:20;;;;;;;5.25;4.40;;;;;;;;;;5093911;28;20040;-66
2023/09/06 02:44:46;;;;;;;7.68;4.85;;;;;;;;;;5093631;28;20043;-66
2023/09/06 02:47:15;;;;;;;5.50;4.50;;;;;;;;;;5092384;28;20048;-66
2023/09/06 02:49:43;;;;;;;5.00;4.10;;;;;;;;;;5093645;28;20662;-66
2023/09/06 02:52:29;;;;;;;5.72;4.35;;;;;;;;;;5093661;28;20115;-66
2023/09/06 02:54:57;;;;;;;5.38;4.10;;;;;;;;;;5072707;28;20040;-66
2023/09/06 02:57:24;;;;;;;5.70;4.18;;;;;;;;;;5079477;28;20101;-66
2023/09/06 02:59:51;;;;;;;7.72;4.65;;;;;;;;;;5093762;28;20044;-66
2023/09/06 03:02:22;;;;;;;5.50;4.60;;;;;;;;;;5092767;28;20043;-66
2023/09/06 03:04:51;;;;;;;6.50;4.65;;;;;;;;;;5093726;28;20041;-66
2023/09/06 03:07:19;;;;;;;6.43;4.82;;;;;;;;;;5092612;28;20487;-66
2023/09/06 03:09:45;;;;;;;4.70;4.20;;;;;;;;;;5091975;28;20051;-66
2023/09/06 03:12:14;;;;;;;4.90;4.35;;;;;;;;;;5082634;28;20040;-66
2023/09/06 03:14:48;;;;;;;5.82;4.28;;;;;;;;;;5075270;28;20040;-66
2023/09/06 03:17:22;;;;;;;5.78;4.35;;;;;;;;;;5077770;28;20119;-66
2023/09/06 03:19:53;;;;;;;6.40;4.25;;;;;;;;;;5079815;28;20040;-66
2023/09/06 03:22:20;;;;;;;7.32;4.50;;;;;;;;;;5093180;28;20036;-66
2023/09/06 03:24:46;;;;;;;7.85;4.78;;;;;;;;;;5092651;28;20079;-66
2023/09/06 03:27:16;;;;;;;6.20;4.43;;;;;;;;;;5093259;28;20098;-66
2023/09/06 03:29:43;;;;;;;6.03;4.28;;;;;;;;;;5092675;28;20072;-66
2023/09/06 03:32:09;;;;;;;6.95;4.50;;;;;;;;;;5092407;28;20052;-66
2023/09/06 03:34:36;;;;;;;6.03;4.97;;;;;;;;;;5092958;28;20508;-66
2023/09/06 03:37:05;;;;;;;7.03;4.53;;;;;;;;;;5092650;28;20076;-66
2023/09/06 03:39:37;;;;;;;4.75;4.15;;;;;;;;;;5092715;28;20823;-66
2023/09/06 03:42:08;;;;;;;6.07;4.30;;;;;;;;;;5092431;28;20166;-66
2023/09/06 03:44:34;;;;;;;4.50;4.05;;;;;;;;;;5092636;28;20079;-66
2023/09/06 03:47:04;;;;;;;6.10;4.38;;;;;;;;;;5091117;28;20070;-66
2023/09/06 03:49:30;;;;;;;6.65;4.30;;;;;;;;;;5092690;28;20051;-66
2023/09/06 03:51:56;;;;;;;7.28;4.43;;;;;;;;;;5092260;28;20459;-66
2023/09/06 03:54:22;;;;;;;6.53;4.18;;;;;;;;;;5092106;28;20040;-66
2023/09/06 03:56:52;;;;;;;5.95;4.45;;;;;;;;;;5091295;28;20181;-66
2023/09/06 03:59:18;;;;;;;5.47;4.43;;;;;;;;;;5092094;28;20036;-66
2023/09/06 04:01:45;;;;;;;5.45;4.30;;;;;;;;;;5092367;28;20474;-66
2023/09/06 04:04:12;;;;;;;7.38;4.60;;;;;;;;;;5092232;28;20043;-66
2023/09/06 04:06:38;;;;;;;6.38;5.03;;;;;;;;;;5092503;28;20044;-66
2023/09/06 04:09:07;;;;;;;8.30;5.05;;;;;;;;;;5091721;28;20039;-66
2023/09/06 04:11:33;;;;;;;8.60;4.47;;;;;;;;;;5091019;28;20054;-66
2023/09/06 04:14:01;;;;;;;5.20;4.63;;;;;;;;;;5091990;28;20048;-66
2023/09/06 04:16:27;;;;;;;5.85;4.63;;;;;;;;;;5083826;28;20033;-66
2023/09/06 04:18:53;;;;;;;6.20;5.22;;;;;;;;;;5092340;28;20684;-66
2023/09/06 04:21:20;;;;;;;5.60;4.53;;;;;;;;;;5091946;28;20153;-66
2023/09/06 04:23:46;;;;;;;4.95;4.43;;;;;;;;;;5091961;28;20421;-66
2023/09/06 04:26:12;;;;;;;5.07;4.57;;;;;;;;;;5091851;28;20040;-66
2023/09/06 04:28:38;;;;;;;5.50;4.72;;;;;;;;;;5091850;28;20044;-66
2023/09/06 04:31:04;;;;;;;7.50;4.82;;;;;;;;;;5091202;28;20040;-66
2023/09/06 04:33:30;;;;;;;7.47;5.30;;;;;;;;;;5091943;28;20063;-66
2023/09/06 04:35:57;;;;;;;6.40;5.25;;;;;;;;;;5091514;28;20067;-66
2023/09/06 04:38:23;;;;;;;6.07;4.88;;;;;;;;;;5091454;28;20044;-66
2023/09/06 04:40:51;;;;;;;7.10;4.88;;;;;;;;;;5091353;28;20477;-66
2023/09/06 04:43:18;;;;;;;6.50;5.43;;;;;;;;;;5091619;28;20132;-66
2023/09/06 04:45:44;;;;;;;5.90;4.63;;;;;;;;;;5091271;28;20118;-66
2023/09/06 04:48:11;;;;;;;8.50;5.45;;;;;;;;;;5091494;28;20394;-66
2023/09/06 04:50:40;;;;;;;7.25;5.38;;;;;;;;;;5091786;28;20127;-66
2023/09/06 04:53:11;;;;;;;7.45;5.60;;;;;;;;;;5091026;28;20044;-66
2023/09/06 04:55:37;;;;;;;8.25;5.13;;;;;;;;;;5091648;28;20052;-66
2023/09/06 04:58:04;;;;;;;6.07;5.47;;;;;;;;;;5091295;28;20047;-66
2023/09/06 05:00:36;;;;;;;8.23;5.13;;;;;;;;;;5091184;28;20089;-66
2023/09/06 05:03:03;;;;;;;7.53;5.45;;;;;;;;;;5091296;28;20039;-66
2023/09/06 05:05:29;;;;;;;7.35;5.80;;;;;;;;;;5089916;28;20040;-66
2023/09/06 05:07:55;;;;;;;7.15;5.93;;;;;;;;;;5090017;28;20044;-66
2023/09/06 05:10:21;;;;;;;5.88;5.15;;;;;;;;;;5089920;28;20177;-66
2023/09/06 05:12:47;;;;;;;6.97;5.70;;;;;;;;;;5091553;28;20131;-66
2023/09/06 05:15:13;;;;;;;7.65;5.55;;;;;;;;;;5090812;28;20043;-66
2023/09/06 05:17:40;;;;;;;8.40;6.20;;;;;;;;;;5073001;28;20487;-66
2023/09/06 05:20:25;;;;;;;8.38;5.70;;;;;;;;;;5084097;28;20051;-66
2023/09/06 05:22:52;;;;;;;7.80;5.70;;;;;;;;;;5090927;28;20047;-66
2023/09/06 05:25:18;;;;;;;6.32;5.18;;;;;;;;;;5091470;28;20036;-66
2023/09/06 05:27:44;;;;;;;7.35;5.50;;;;;;;;;;5091169;28;20040;-66
2023/09/06 05:30:10;;;;;;;6.50;5.15;;;;;;;;;;5092419;28;20090;-66
2023/09/06 05:32:36;;;;;;;7.90;5.75;;;;;;;;;;5095162;28;20502;-66
2023/09/06 05:35:03;;;;;;;8.82;5.90;;;;;;;;;;5095344;28;20043;-66
2023/09/06 05:37:29;;;;;;;7.18;5.47;;;;;;;;;;5094556;28;20055;-66
2023/09/06 05:39:56;;;;;;;8.63;5.57;;;;;;;;;;5095439;28;20028;-66
2023/09/06 05:42:22;;;;;;;8.55;6.13;;;;;;;;;;5094600;28;20040;-66
2023/09/06 05:44:48;;;;;;;8.45;5.88;;;;;;;;;;5095020;28;20032;-66
2023/09/06 05:47:14;;;;;;;7.20;5.90;;;;;;;;;;5094665;28;20050;-66
2023/09/06 05:49:40;;;;;;;9.10;6.07;;;;;;;;;;5094823;28;20044;-66
2023/09/06 05:52:06;;;;;;;7.63;5.70;;;;;;;;;;5093294;28;20475;-66
2023/09/06 05:54:32;;;;;;;7.38;5.50;;;;;;;;;;5094713;28;20108;-66
2023/09/06 05:56:58;;;;;;;7.20;5.53;;;;;;;;;;5094900;28;20458;-66
2023/09/06 05:59:25;;;;;;;7.28;5.75;;;;;;;;;;5093994;28;20089;-66
2023/09/06 06:01:51;;;;;;;8.25;5.63;;;;;;;;;;5094794;28;20047;-66
2023/09/06 06:04:17;;;;;;;6.72;5.60;;;;;;;;;;5094618;28;20467;-66
2023/09/06 06:06:43;;;;;;;8.88;5.72;;;;;;;;;;5093015;28;20105;-66
2023/09/06 06:09:11;;;;;;;7.28;5.90;;;;;;;;;;5093195;28;20084;-66
2023/09/06 06:11:38;;;;;;;9.90;6.32;;;;;;;;;;5093266;28;20101;-66
2023/09/06 06:14:04;;;;;;;8.02;5.95;;;;;;;;;;5094190;28;20119;-66
2023/09/06 06:16:30;;;;;;;7.93;5.95;;;;;;;;;;5088549;28;20523;-66
2023/09/06 06:18:56;;;;;;;8.70;6.50;;;;;;;;;;5094519;28;20032;-66
2023/09/06 06:21:30;;;;;;;7.45;6.35;;;;;;;;;;5093711;28;20119;-66
2023/09/06 06:23:56;;;;;;;8.05;5.93;;;;;;;;;;5094500;28;20080;-66
2023/09/06 06:26:22;;;;;;;7.18;5.80;;;;;;;;;;5094126;28;20544;-66
2023/09/06 06:28:51;;;;;;;7.25;6.30;;;;;;;;;;5092454;28;20044;-66
2023/09/06 06:31:17;;;;;;;8.73;6.45;;;;;;;;;;5085040;28;20043;-66
2023/09/06 06:33:43;;;;;;;10.55;6.35;;;;;;;;;;5087311;28;20047;-65
2023/09/06 06:36:09;;;;;;;10.05;6.63;;;;;;;;;;5081901;28;20069;-65
2023/09/06 06:38:35;;;;;;;6.97;6.28;;;;;;;;;;5088959;28;20682;-66
2023/09/06 06:41:02;;;;;;;9.20;6.63;;;;;;;;;;5091807;28;20064;-66
2023/09/06 06:43:28;;;;;;;9.50;7.10;;;;;;;;;;5080478;28;20127;-67
2023/09/06 06:45:54;;;;;;;9.63;7.20;;;;;;;;;;5093412;28;20036;-67
2023/09/06 06:48:21;;;;;;;8.77;7.05;;;;;;;;;;5092869;28;20044;-67
2023/09/06 06:50:48;;;;;;;10.18;7.47;;;;;;;;;;5093248;28;20047;-68
2023/09/06 06:53:14;;;;;;;9.90;6.80;;;;;;;;;;5092325;28;20066;-67
2023/09/06 06:55:40;;;;;;;7.88;7.05;;;;;;;;;;5093024;28;20467;-66
2023/09/06 06:58:09;;;;;;;8.68;7.00;;;;;;;;;;5087664;28;20085;-66
2023/09/06 07:00:35;;;;;;;10.65;6.78;;;;;;;;;;5092631;28;20165;-68
2023/09/06 07:03:02;;;;;;;15.77;7.30;;;;;;;;;;5086098;28;20048;-67
2023/09/06 07:05:28;;;;;;;8.23;6.68;;;;;;;;;;5091113;28;20054;-68
2023/09/06 07:07:54;;;;;;;9.40;7.35;;;;;;;;;;5092970;28;20240;-67
2023/09/06 07:10:25;;;;;;;9.50;7.05;;;;;;;;;;5092668;28;20564;-67
2023/09/06 07:12:51;;;;;;;10.90;7.68;;;;;;;;;;5091866;28;20525;-67
2023/09/06 07:15:17;;;;;;;12.73;6.65;;;;;;;;;;5088017;28;20174;-67
2023/09/06 07:17:43;;;;;;;7.80;6.55;;;;;;;;;;5070712;28;20044;-67
2023/09/06 07:20:10;;;;;;;8.60;5.93;;;;;;;;;;5090841;28;20043;-67
2023/09/06 07:22:36;;;;;;;8.23;6.50;;;;;;;;;;5092494;28;20277;-66
2023/09/06 07:25:04;;;;;;;9.20;6.95;;;;;;;;;;5092516;28;20036;-66
2023/09/06 07:27:30;;;;;;;8.77;6.40;;;;;;;;;;5092481;28;20044;-67
2023/09/06 07:29:56;;;;;;;9.55;6.22;;;;;;;;;;5092119;28;20106;-66
2023/09/06 07:32:22;;;;;;;9.82;6.38;;;;;;;;;;5087103;28;20052;-67
2023/09/06 07:34:48;;;;;;;8.88;6.35;;;;;;;;;;5091900;28;20044;-66
2023/09/06 07:37:14;;;;;;;9.27;5.85;;;;;;;;;;5087069;28;20093;-67
2023/09/06 07:39:40;;;;;;;8.02;5.47;;;;;;;;;;5092152;28;20038;-66
2023/09/06 07:42:06;;;;;;;7.40;4.80;;;;;;;;;;5091384;28;20036;-65
2023/09/06 07:44:32;;;;;;;6.93;5.10;;;;;;;;;;5092041;28;20068;-66
2023/09/06 07:46:59;;;;;;;12.70;5.05;;;;;;;;;;5091806;28;20119;-66
2023/09/06 07:49:32;;;;;;;6.32;4.20;;;;;;;;;;5087576;28;20040;-67
2023/09/06 07:52:04;;;;;;;7.88;4.95;;;;;;;;;;5091759;28;20044;-67
2023/09/06 07:54:33;;;;;;;6.85;4.28;;;;;;;;;;5091665;28;20047;-67
2023/09/06 07:57:01;;;;;;;6.25;4.15;;;;;;;;;;5091292;28;20399;-66
2023/09/06 07:59:27;;;;;;;4.72;3.70;;;;;;;;;;5086215;28;20064;-66
2023/09/06 08:01:53;;;;;;;4.90;3.58;;;;;;;;;;5089890;28;20078;-66
2023/09/06 08:04:19;;;;;;;3.50;3.00;;;;;;;;;;5085992;28;20075;-66
2023/09/06 08:06:46;;;;;;;5.57;3.20;;;;;;;;;;5090400;28;20048;-66
2023/09/06 08:09:13;;;;;;;6.97;3.60;;;;;;;;;;5078545;28;20039;-66
2023/09/06 08:11:39;;;;;;;4.38;3.40;;;;;;;;;;5090019;28;20382;-66
2023/09/06 08:14:06;;;;;;;5.80;3.25;;;;;;;;;;5091365;28;20693;-66
2023/09/06 08:16:32;;;;;;;3.63;2.70;;;;;;;;;;5088908;28;20043;-66
2023/09/06 08:18:58;;;;;;;5.88;3.22;;;;;;;;;;5088530;28;20476;-66
2023/09/06 08:21:24;;;;;;;4.40;2.63;;;;;;;;;;5091334;28;20036;-66
2023/09/06 08:23:51;;;;;;;6.63;2.67;;;;;;;;;;5086523;28;20044;-65
2023/09/06 08:26:17;;;;;;;4.80;2.70;;;;;;;;;;5090886;28;20040;-66
2023/09/06 08:28:43;;;;;;;3.88;2.90;;;;;;;;;;5084795;28;20402;-65
2023/09/06 08:31:09;;;;;;;4.65;3.00;;;;;;;;;;5091330;28;20056;-65
2023/09/06 08:33:36;;;;;;;4.38;2.42;;;;;;;;;;5086030;28;20040;-65
2023/09/06 08:36:02;;;;;;;6.47;2.35;;;;;;;;;;5091439;28;20209;-65
2023/09/06 08:38:28;;;;;;;4.97;2.60;;;;;;;;;;5090386;28;20386;-66
2023/09/06 08:40:54;;;;;;;3.28;2.72;;;;;;;;;;5090105;28;20040;-65
2023/09/06 08:43:20;;;;;;;5.32;2.88;;;;;;;;;;5086276;28;20043;-65
2023/09/06 08:45:48;;;;;;;3.50;2.75;;;;;;;;;;5090957;28;20043;-65
2023/09/06 08:48:15;;;;;;;4.10;2.30;;;;;;;;;;5090180;28;20048;-66
2023/09/06 08:50:43;;;;;;;5.03;2.60;;;;;;;;;;5091419;28;20135;-66
2023/09/06 08:53:10;;;;;;;4.75;2.63;;;;;;;;;;5089288;28;20048;-66
2023/09/06 08:55:37;;;;;;;3.58;2.70;;;;;;;;;;5090558;28;20089;-66
2023/09/06 08:58:03;;;;;;;4.47;2.75;;;;;;;;;;5090495;28;20044;-66
2023/09/06 09:00:30;;;;;;;3.67;2.75;;;;;;;;;;5090546;28;20044;-67
2023/09/06 09:02:57;;;;;;;2.97;2.55;;;;;;;;;;5086587;28;20032;-65
2023/09/06 09:05:23;;;;;;;4.32;3.00;;;;;;;;;;5090112;28;20450;-66
2023/09/06 09:07:57;;;;;;;3.33;2.83;;;;;;;;;;5091516;28;20036;-66
2023/09/06 09:10:26;;;;;;;6.03;3.00;;;;;;;;;;5090392;28;20093;-66
2023/09/06 09:12:52;;;;;;;5.00;3.00;;;;;;;;;;5091285;28;20101;-65
2023/09/06 09:15:26;;;;;;;3.75;2.55;;;;;;;;;;5090980;28;20040;-65
2023/09/06 09:17:53;;;;;;;5.70;2.30;;;;;;;;;;5088045;28;20052;-66
2023/09/06 09:20:19;;;;;;;3.53;2.38;;;;;;;;;;5091282;28;20036;-65
2023/09/06 09:22:46;;;;;;;3.65;2.70;;;;;;;;;;5090718;28;20040;-66
2023/09/06 09:25:15;;;;;;;5.00;2.65;;;;;;;;;;5090866;28;20044;-65
2023/09/06 09:27:42;;;;;;;7.43;2.92;;;;;;;;;;5090815;28;20048;-66
2023/09/06 09:30:09;;;;;;;5.50;2.83;;;;;;;;;;5090718;28;20131;-67
2023/09/06 09:32:35;;;;;;;7.82;3.13;;;;;;;;;;5090336;28;20474;-67
2023/09/06 09:35:02;;;;;;;6.10;2.95;;;;;;;;;;5090942;28;20071;-66
2023/09/06 09:37:29;;;;;;;4.53;2.90;;;;;;;;;;5091076;28;20044;-66
2023/09/06 09:39:56;;;;;;;5.70;2.85;;;;;;;;;;5090972;28;20044;-65
2023/09/06 09:42:22;;;;;;;3.25;2.55;;;;;;;;;;5081567;28;20055;-67
2023/09/06 09:45:01;;;;;;;5.05;2.80;;;;;;;;;;5090613;28;20352;-66
2023/09/06 09:47:28;;;;;;;4.18;2.60;;;;;;;;;;5090364;28;20044;-65
2023/09/06 09:49:55;;;;;;;5.35;2.70;;;;;;;;;;5090397;28;20089;-66
2023/09/06 09:52:22;;;;;;;5.40;2.80;;;;;;;;;;5088852;28;20092;-65
2023/09/06 09:54:50;;;;;;;3.53;2.10;;;;;;;;;;5089867;28;20656;-66
2023/09/06 09:57:19;;;;;;;4.05;2.72;;;;;;;;;;5085487;28;20052;-65
2023/09/06 09:59:49;;;;;;;5.43;2.92;;;;;;;;;;5089875;28;20066;-65
2023/09/06 10:02:16;;;;;;;3.67;2.45;;;;;;;;;;5089655;28;20040;-65
2023/09/06 10:04:42;;;;;;;3.40;2.75;;;;;;;;;;5090650;28;20040;-65
2023/09/06 10:07:11;;;;;;;3.40;2.40;;;;;;;;;;5090021;28;20040;-65
2023/09/06 10:09:40;;;;;;;2.85;2.50;;;;;;;;;;5090206;28;20424;-65
2023/09/06 10:12:11;;;;;;;6.28;2.47;;;;;;;;;;5089839;28;20048;-65
2023/09/06 10:14:40;;;;;;;4.13;2.55;;;;;;;;;;5090346;28;20059;-65
2023/09/06 10:17:07;;;;;;;4.35;2.67;;;;;;;;;;5078904;28;20083;-65
2023/09/06 10:19:34;;;;;;;4.90;2.65;;;;;;;;;;5083635;28;20044;-66
2023/09/06 10:22:02;;;;;;;3.92;2.40;;;;;;;;;;5093679;28;20043;-66
2023/09/06 10:24:31;;;;;;;4.43;2.38;;;;;;;;;;5092027;28;20048;-66
2023/09/06 10:26:57;;;;;;;2.92;2.53;;;;;;;;;;5092680;28;20035;-66
2023/09/06 10:29:24;;;;;;;4.18;2.72;;;;;;;;;;5092736;28;20055;-65
2023/09/06 10:31:53;;;;;;;4.78;2.40;;;;;;;;;;5092715;28;20055;-66
2023/09/06 10:34:20;;;;;;;3.95;2.90;;;;;;;;;;5088874;28;20062;-66
2023/09/06 10:36:57;;;;;;;5.25;2.70;;;;;;;;;;5093003;28;20051;-65
2023/09/06 10:39:25;;;;;;;5.85;2.67;;;;;;;;;;5092623;28;20044;-65
2023/09/06 10:42:13;;;;;;;7.60;2.75;;;;;;;;;;5088449;28;20047;-66
2023/09/06 10:44:58;;;;;;;3.45;2.25;;;;;;;;;;5094117;28;20036;-66
2023/09/06 10:47:25;;;;;;;4.32;2.45;;;;;;;;;;5091801;28;20044;-66
2023/09/06 10:50:13;;;;;;;3.20;2.10;;;;;;;;;;5091929;28;20040;-66
2023/09/06 10:52:41;;;;;;;7.90;2.53;;;;;;;;;;5093307;28;20043;-66
2023/09/06 10:55:27;;;;;;;2.85;2.30;;;;;;;;;;5093490;28;20095;-66
2023/09/06 10:57:54;;;;;;;4.70;2.40;;;;;;;;;;5073453;28;20079;-66
2023/09/06 11:00:25;;;;;;;4.82;1.98;;;;;;;;;;5079345;28;20047;-66
2023/09/06 11:03:16;;;;;;;3.90;2.00;;;;;;;;;;5093358;28;20044;-65
2023/09/06 11:05:43;;;;;;;4.75;1.98;;;;;;;;;;5091697;28;20044;-65
2023/09/06 11:08:11;;;;;;;5.30;2.55;;;;;;;;;;5092148;28;20058;-65
2023/09/06 11:10:37;;;;;;;5.57;2.53;;;;;;;;;;5092678;28;20044;-66
2023/09/06 11:13:10;;;;;;;29.40;19.65;;;;;;;;;;5092179;28;20127;-66
2023/09/06 11:15:37;;;;;;;6.50;2.90;;;;;;;;;;5092044;28;20047;-66
2023/09/06 11:18:03;;;;;;;3.33;2.17;;;;;;;;;;5077263;28;20432;-66
2023/09/06 11:20:33;;;;;;;2.88;2.20;;;;;;;;;;5091668;28;20048;-66
2023/09/06 11:22:59;;;;;;;3.33;2.40;;;;;;;;;;5092783;28;20032;-65
2023/09/06 11:25:28;;;;;;;6.32;2.00;;;;;;;;;;5086567;28;20528;-65
2023/09/06 11:27:56;;;;;;;4.18;1.90;;;;;;;;;;5091110;28;20048;-66
2023/09/06 11:30:23;;;;;;;2.83;1.90;;;;;;;;;;5086914;28;20391;-65
2023/09/06 11:32:50;;;;;;;3.95;1.95;;;;;;;;;;5091683;28;20599;-66
2023/09/06 11:35:16;;;;;;;3.30;2.00;;;;;;;;;;5092113;28;20398;-66
2023/09/06 11:37:49;;;;;;;2.72;1.98;;;;;;;;;;5085918;28;20126;-66
2023/09/06 11:40:15;;;;;;;5.20;1.90;;;;;;;;;;5091445;28;20040;-66
2023/09/06 11:43:02;;;;;;;4.18;2.28;;;;;;;;;;5085890;28;20545;-66
2023/09/06 11:45:31;;;;;;;2.92;1.80;;;;;;;;;;5086848;28;20050;-66
2023/09/06 11:47:59;;;;;;;3.40;2.00;;;;;;;;;;5090404;28;20084;-66
2023/09/06 11:50:29;;;;;;;3.30;1.75;;;;;;;;;;5091992;28;20044;-66
2023/09/06 11:52:58;;;;;;;4.43;1.85;;;;;;;;;;5091848;28;20136;-65
2023/09/06 11:55:26;;;;;;;3.35;1.90;;;;;;;;;;5092077;28;20055;-65
2023/09/06 11:57:52;;;;;;;3.08;2.03;;;;;;;;;;5089789;28;20044;-66
2023/09/06 12:00:45;;;;;;;3.03;1.80;;;;;;;;;;5091791;28;20536;-66
2023/09/06 12:03:20;;;;;;;2.33;1.67;;;;;;;;;;5091938;28;20036;-66
2023/09/06 12:05:47;;;;;;;3.25;1.90;;;;;;;;;;5086089;28;20366;-65
2023/09/06 12:08:19;;;;;;;4.95;1.65;;;;;;;;;;5086220;28;20119;-66
2023/09/06 12:10:53;;;;;;;2.03;1.60;;;;;;;;;;5086154;28;20115;-65
2023/09/06 12:13:29;;;;;;;3.42;1.67;;;;;;;;;;5091954;28;20150;-66
2023/09/06 12:15:59;;;;;;;3.05;2.00;;;;;;;;;;5086922;28;20078;-65
2023/09/06 12:18:27;;;;;;;1.92;1.65;;;;;;;;;;5088798;28;20072;-65
2023/09/06 12:20:54;;;;;;;3.03;2.08;;;;;;;;;;5090903;28;20051;-63
2023/09/06 12:23:20;;;;;;;2.72;1.70;;;;;;;;;;5082380;28;20040;-63
2023/09/06 12:25:47;;;;;;;2.53;1.80;;;;;;;;;;5091188;28;20044;-63
2023/09/06 12:28:13;;;;;;;5.43;1.73;;;;;;;;;;5077716;28;20093;-63
2023/09/06 12:30:39;;;;;;;3.28;2.17;;;;;;;;;;5089773;28;20130;-64
2023/09/06 12:33:05;;;;;;;2.50;1.70;;;;;;;;;;5090484;28;20048;-63
2023/09/06 12:35:38;;;;;;;2.65;1.80;;;;;;;;;;5091412;28;20068;-64
2023/09/06 12:38:06;;;;;;;2.85;2.20;;;;;;;;;;5090194;28;20510;-63
2023/09/06 12:40:32;;;;;;;4.80;1.85;;;;;;;;;;5085436;28;20395;-64
2023/09/06 12:42:59;;;;;;;2.40;1.77;;;;;;;;;;5090607;28;20493;-63
2023/09/06 12:45:26;;;;;;;4.60;1.63;;;;;;;;;;5090327;28;20040;-64
2023/09/06 12:47:53;;;;;;;1.60;1.50;;;;;;;;;;5090901;28;20130;-63
2023/09/06 12:50:19;;;;;;;2.45;1.80;;;;;;;;;;5091318;28;20550;-63
2023/09/06 12:52:46;;;;;;;2.53;1.55;;;;;;;;;;5090211;28;20489;-63
2023/09/06 12:55:12;;;;;;;2.90;1.58;;;;;;;;;;5089204;28;20086;-63
2023/09/06 12:57:38;;;;;;;5.18;1.60;;;;;;;;;;5080341;28;20055;-64
2023/09/06 13:00:05;;;;;;;1.95;1.50;;;;;;;;;;5090353;28;20521;-64
2023/09/06 13:02:33;;;;;;;3.45;1.80;;;;;;;;;;5085413;28;20137;-64
2023/09/06 13:04:59;;;;;;;2.13;1.65;;;;;;;;;;5090432;28;20475;-63
2023/09/06 13:07:25;;;;;;;4.50;2.03;;;;;;;;;;5090624;28;20040;-63
2023/09/06 13:09:51;;;;;;;3.17;1.63;;;;;;;;;;5090375;28;20047;-63
2023/09/06 13:12:17;;;;;;;3.55;1.65;;;;;;;;;;5090770;28;20063;-63
2023/09/06 13:14:43;;;;;;;1.70;1.33;;;;;;;;;;5071733;28;20117;-63
2023/09/06 13:17:09;;;;;;;4.57;1.52;;;;;;;;;;5081776;28;20471;-63
2023/09/06 13:19:35;;;;;;;2.50;1.80;;;;;;;;;;5083790;28;20047;-63
2023/09/06 13:22:03;;;;;;;3.92;1.85;;;;;;;;;;5077447;28;20032;-63
2023/09/06 13:24:33;;;;;;;2.22;1.60;;;;;;;;;;5091034;28;20052;-63
2023/09/06 13:26:59;;;;;;;2.05;1.67;;;;;;;;;;5090448;28;20394;-63
2023/09/06 13:29:25;;;;;;;3.80;1.90;;;;;;;;;;5081705;28;20921;-63
2023/09/06 13:31:51;;;;;;;1.98;1.70;;;;;;;;;;5083451;28;20060;-63
2023/09/06 13:34:17;;;;;;;2.20;1.55;;;;;;;;;;5090545;28;20036;-63
2023/09/06 13:36:43;;;;;;;3.00;2.00;;;;;;;;;;5085032;28;20085;-63
2023/09/06 13:39:13;;;;;;;3.00;1.55;;;;;;;;;;5087164;28;20147;-64
2023/09/06 13:41:41;;;;;;;1.85;1.60;;;;;;;;;;5090167;28;20117;-63
2023/09/06 13:44:07;;;;;;;1.98;1.40;;;;;;;;;;5083144;28;20032;-63
2023/09/06 13:46:33;;;;;;;3.63;2.00;;;;;;;;;;5084924;28;20516;-63
2023/09/06 13:49:00;;;;;;;3.00;1.90;;;;;;;;;;5090380;28;20036;-64
2023/09/06 13:51:27;;;;;;;2.10;1.42;;;;;;;;;;5092600;28;20482;-64
2023/09/06 13:53:53;;;;;;;2.67;1.63;;;;;;;;;;5091185;28;20040;-64
2023/09/06 13:56:19;;;;;;;1.77;1.38;;;;;;;;;;5091479;28;20039;-64
2023/09/06 13:58:45;;;;;;;2.13;1.70;;;;;;;;;;5093571;28;20078;-64
2023/09/06 14:01:12;;;;;;;1.45;1.30;;;;;;;;;;5093231;28;20044;-64
2023/09/06 14:03:39;;;;;;;2.58;1.70;;;;;;;;;;5073744;28;20055;-63
2023/09/06 14:06:05;;;;;;;2.38;1.65;;;;;;;;;;5077773;28;20062;-64
2023/09/06 14:08:31;;;;;;;2.63;1.52;;;;;;;;;;5093028;28;20626;-64
2023/09/06 14:10:58;;;;;;;2.72;1.42;;;;;;;;;;5094413;28;20040;-64
2023/09/06 14:13:24;;;;;;;2.33;1.35;;;;;;;;;;5092433;28;20043;-64
2023/09/06 14:15:50;;;;;;;2.55;1.33;;;;;;;;;;5090415;28;20049;-64
2023/09/06 14:18:18;;;;;;;1.45;1.35;;;;;;;;;;5092048;28;20101;-64
2023/09/06 14:20:44;;;;;;;2.90;1.90;;;;;;;;;;5092130;28;20047;-64
2023/09/06 14:23:11;;;;;;;2.28;1.58;;;;;;;;;;5093824;28;20493;-64
2023/09/06 14:25:37;;;;;;;2.90;1.80;;;;;;;;;;5087178;28;20088;-63
2023/09/06 14:28:03;;;;;;;1.67;1.40;;;;;;;;;;5093947;28;20044;-63
2023/09/06 14:30:30;;;;;;;3.47;1.40;;;;;;;;;;5092718;28;20510;-63
2023/09/06 14:32:56;;;;;;;1.83;1.48;;;;;;;;;;5088338;28;20389;-63
2023/09/06 14:35:22;;;;;;;4.07;1.80;;;;;;;;;;5093833;28;20040;-63
2023/09/06 14:37:48;;;;;;;7.75;2.13;;;;;;;;;;5091496;28;20043;-63
2023/09/06 14:40:15;;;;;;;3.97;2.03;;;;;;;;;;5093535;28;20065;-64
2023/09/06 14:42:42;;;;;;;1.98;1.60;;;;;;;;;;5092842;28;20043;-64
2023/09/06 14:45:08;;;;;;;3.63;1.75;;;;;;;;;;5092974;28;20044;-64